Time;durP1;ratioP1;P1;durP2;ratioP2;P2;SDS_P1;SDS_P2;PMS_P1;PMS_P2;Temp;Humidity;BMP_temperature;BMP_pressure;BME280_temperature;BME280_humidity;BME280_pressure;Samples;Min_cycle;Max_cycle;Signal;HPM_P1;HPM_P2
2022/08/11 00:00:19;;;;;;;;;;;;;;;23.60;51.02;101820.97;5089970;28;20091;-35
2022/08/11 00:02:49;;;;;;;0.10;0.10;;;;;;;23.60;51.08;101822.94;5112003;28;20265;-35
2022/08/11 00:05:18;;;;;;;0.10;0.10;;;;;;;23.59;51.10;101819.31;5110935;28;20155;-34
2022/08/11 00:07:47;;;;;;;0.10;0.10;;;;;;;23.60;51.22;101818.19;5110381;28;20048;-34
2022/08/11 00:10:16;;;;;;;0.10;0.10;;;;;;;23.59;51.11;101810.16;5093063;28;20075;-34
2022/08/11 00:12:42;;;;;;;0.10;0.10;;;;;;;23.60;51.12;101814.59;5093719;28;20086;-34
2022/08/11 00:15:09;;;;;;;0.10;0.10;;;;;;;23.60;51.06;101812.63;5092463;28;20067;-34
2022/08/11 00:17:35;;;;;;;0.10;0.10;;;;;;;23.59;51.08;101811.00;5111712;28;20083;-34
2022/08/11 00:20:07;;;;;;;0.10;0.10;;;;;;;23.60;51.16;101814.59;5109950;28;20071;-34
2022/08/11 00:22:44;;;;;;;0.10;0.10;;;;;;;23.59;51.17;101811.00;5111562;28;20079;-34
2022/08/11 00:25:12;;;;;;;0.10;0.10;;;;;;;23.58;50.99;101814.06;5091316;28;20071;-35
2022/08/11 00:27:39;;;;;;;0.10;0.10;;;;;;;23.59;51.12;101819.31;5089184;28;20123;-34
2022/08/11 00:30:06;;;;;;;0.10;0.10;;;;;;;23.59;51.18;101813.78;5108758;28;20177;-35
2022/08/11 00:32:32;;;;;;;0.10;0.10;;;;;;;23.59;51.00;101822.09;5092164;28;20078;-35
2022/08/11 00:34:59;;;;;;;0.10;0.10;;;;;;;23.59;51.04;101811.00;5108882;28;20044;-34
2022/08/11 00:37:48;;;;;;;0.00;0.00;;;;;;;23.60;51.11;101809.03;5094291;28;20054;-34
2022/08/11 00:40:19;;;;;;;0.10;0.10;;;;;;;23.60;51.14;101814.59;5112178;28;20130;-35
2022/08/11 00:43:00;;;;;;;0.10;0.10;;;;;;;23.59;51.17;101813.78;5110242;28;20142;-35
2022/08/11 00:45:30;;;;;;;0.10;0.10;;;;;;;23.58;51.12;101809.34;5107688;28;20078;-36
2022/08/11 00:48:04;;;;;;;0.10;0.10;;;;;;;23.60;51.05;101811.81;5115712;28;20075;-35
2022/08/11 00:50:48;;;;;;;0.10;0.10;;;;;;;23.59;51.17;101807.38;5110394;28;20043;-35
2022/08/11 00:53:36;;;;;;;0.10;0.10;;;;;;;23.59;51.17;101819.31;5109197;28;20074;-35
2022/08/11 00:56:32;;;;;;;0.10;0.10;;;;;;;23.58;51.20;101814.06;5092536;28;20139;-36
2022/08/11 00:59:38;;;;;;;0.10;0.10;;;;;;;23.59;51.20;101808.22;5095763;28;20089;-37
2022/08/11 01:02:25;;;;;;;0.10;0.10;;;;;;;23.60;51.40;101814.59;5092537;28;20485;-36
2022/08/11 01:05:24;;;;;;;0.10;0.10;;;;;;;23.59;51.21;101818.50;5096021;28;20069;-37
2022/08/11 01:08:22;;;;;;;0.10;0.10;;;;;;;23.58;50.97;101809.34;5107214;28;20430;-36
2022/08/11 01:11:27;;;;;;;0.10;0.10;;;;;;;23.58;51.17;101809.34;5095879;28;20490;-36
2022/08/11 01:14:33;;;;;;;0.10;0.10;;;;;;;23.58;51.10;101809.34;5094172;28;20126;-36
2022/08/11 01:17:39;;;;;;;0.10;0.10;;;;;;;23.59;51.26;101812.94;5083255;28;20401;-36
2022/08/11 01:20:14;;;;;;;0.10;0.10;;;;;;;23.58;51.33;101811.28;5099001;28;20086;-36
2022/08/11 01:23:40;;;;;;;0.10;0.10;;;;;;;23.57;51.35;101804.88;5109935;28;20067;-36
2022/08/11 01:26:46;;;;;;;0.10;0.10;;;;;;;23.59;51.31;101815.72;5093865;28;20067;-35
2022/08/11 01:32:23;;;;;;;0.10;0.10;;;;;;;23.57;51.12;101810.44;5165557;27;20583;-34
2022/08/11 01:35:28;;;;;;;0.10;0.10;;;;;;;23.57;51.16;101804.88;5148976;27;20080;-34
2022/08/11 01:38:26;;;;;;;0.10;0.10;;;;;;;23.58;51.27;101805.72;5137171;27;20081;-35
2022/08/11 01:44:39;;;;;;;0.10;0.10;;;;;;;23.58;51.31;101806.56;5155890;27;20125;-34
2022/08/11 01:48:04;;;;;;;0.10;0.10;;;;;;;23.57;51.25;101807.66;5112462;28;20127;-34
2022/08/11 01:53:38;;;;;;;0.10;0.10;;;;;;;23.58;51.19;101814.06;5169844;27;20113;-34
2022/08/11 02:02:15;;;;;;;0.10;0.10;;;;;;;23.56;51.37;101814.34;5177724;27;20136;-34
2022/08/11 02:05:02;;;;;;;0.10;0.10;;;;;;;23.57;51.20;101807.66;5141081;27;20130;-34
2022/08/11 02:07:55;;;;;;;0.10;0.10;;;;;;;23.57;51.27;101816.00;5138588;27;20093;-34
2022/08/11 02:13:31;;;;;;;0.10;0.10;;;;;;;23.57;51.31;101809.59;5145482;27;20473;-35
2022/08/11 02:16:16;;;;;;;0.10;0.10;;;;;;;23.57;51.20;101809.59;5141853;27;20046;-34
2022/08/11 02:24:44;;;;;;;0.10;0.10;;;;;;;23.56;51.23;101814.34;5128323;27;20058;-34
2022/08/11 02:27:18;;;;;;;0.10;0.10;;;;;;;23.56;51.29;101808.78;5137694;27;20614;-35
2022/08/11 02:30:06;;;;;;;0.10;0.10;;;;;;;23.57;51.32;101815.16;5127094;27;20050;-34
2022/08/11 02:33:33;;;;;;;0.10;0.10;;;;;;;23.56;51.31;101811.56;5143943;27;20047;-35
2022/08/11 02:36:05;;;;;;;0.10;0.10;;;;;;;23.56;51.33;101810.72;5134085;27;20034;-34
2022/08/11 02:38:53;;;;;;;0.10;0.10;;;;;;;23.56;51.50;101819.06;5129800;27;20049;-35
2022/08/11 02:47:13;;;;;;;0.10;0.10;;;;;;;23.58;51.27;101809.34;5158691;27;20382;-34
2022/08/11 02:50:02;;;;;;;0.10;0.10;;;;;;;23.59;51.35;101815.72;5118728;27;20046;-35
2022/08/11 02:52:58;;;;;;;0.10;0.10;;;;;;;23.57;51.35;101810.44;5141851;27;20134;-34
2022/08/11 02:55:31;;;;;;;0.10;0.10;;;;;;;23.56;51.36;101811.56;5132303;27;20046;-34
2022/08/11 02:58:43;;;;;;;0.10;0.10;;;;;;;23.56;51.29;101807.94;5149810;27;20525;-34
2022/08/11 03:01:17;;;;;;;0.10;0.10;;;;;;;23.56;51.31;101819.06;5129371;27;20043;-35
2022/08/11 03:03:50;;;;;;;0.10;0.10;;;;;;;23.56;51.38;101822.69;5131532;27;20051;-35
2022/08/11 03:06:29;;;;;;;0.10;0.10;;;;;;;23.56;51.32;101828.25;5145769;27;20061;-34
2022/08/11 03:09:03;;;;;;;0.10;0.10;;;;;;;23.56;51.38;101819.06;5128503;27;20055;-35
2022/08/11 03:18:01;;;;;;;0.10;0.10;;;;;;;23.56;51.41;101816.28;5128479;27;20500;-35
2022/08/11 03:20:53;;;;;;;0.10;0.10;;;;;;;23.54;51.29;101811.84;5146789;27;20051;-34
2022/08/11 03:24:00;;;;;;;0.10;0.10;;;;;;;23.55;51.43;101812.69;5119065;27;20095;-35
2022/08/11 03:26:32;;;;;;;0.10;0.10;;;;;;;23.54;51.17;101816.59;5130087;27;20134;-35
2022/08/11 03:29:37;;;;;;;0.10;0.10;;;;;;;23.54;51.31;101811.03;5145328;27;20039;-34
2022/08/11 03:32:10;;;;;;;0.10;0.10;;;;;;;23.56;51.38;101810.72;5121386;27;20050;-35
2022/08/11 03:34:38;;;;;;;0.10;0.10;;;;;;;23.54;51.24;101811.84;5129605;27;20400;-35
2022/08/11 03:38:00;;;;;;;0.05;0.05;;;;;;;23.54;51.34;101805.47;5143808;27;20046;-35
2022/08/11 03:43:28;;;;;;;0.10;0.10;;;;;;;23.54;51.48;101811.03;5119214;27;20467;-35
2022/08/11 03:46:09;;;;;;;0.10;0.10;;;;;;;23.53;51.49;101804.66;5115793;27;20086;-35
2022/08/11 03:48:59;;;;;;;0.00;0.00;;;;;;;23.55;51.35;101812.69;5149847;27;20065;-35
2022/08/11 03:51:47;;;;;;;0.10;0.10;;;;;;;23.54;51.40;101811.84;5129074;27;20039;-35
2022/08/11 03:54:57;;;;;;;0.10;0.10;;;;;;;23.54;51.29;101806.31;5132942;27;20042;-34
2022/08/11 04:01:04;;;;;;;0.10;0.10;;;;;;;23.53;51.35;101806.56;5164784;27;20113;-34
2022/08/11 04:04:00;;;;;;;0.10;0.10;;;;;;;23.54;51.25;101811.84;5137271;27;20047;-35
2022/08/11 04:09:36;;;;;;;0.10;0.10;;;;;;;23.54;51.47;101808.25;5178289;27;20140;-34
2022/08/11 04:12:21;;;;;;;0.08;0.08;;;;;;;23.54;51.47;101811.03;5152511;27;20117;-34
2022/08/11 04:16:13;;;;;;;0.10;0.10;;;;;;;23.53;51.26;101807.44;5168491;27;20092;-35
2022/08/11 04:19:17;;;;;;;0.13;0.10;;;;;;;23.54;51.47;101802.69;5135701;27;20057;-35
2022/08/11 04:22:02;;;;;;;0.10;0.10;;;;;;;23.53;51.35;101810.22;5141844;27;20062;-34
2022/08/11 04:25:09;;;;;;;0.10;0.10;;;;;;;23.53;51.32;101807.44;5150481;27;20046;-34
2022/08/11 04:28:00;;;;;;;0.10;0.10;;;;;;;23.53;51.38;101813.00;5138380;27;20548;-34
2022/08/11 04:30:55;;;;;;;0.10;0.10;;;;;;;23.53;51.49;101810.22;5168011;27;20046;-34
2022/08/11 04:33:53;;;;;;;0.10;0.10;;;;;;;23.53;51.48;101809.34;5152464;27;20034;-34
2022/08/11 04:37:33;;;;;;;0.10;0.10;;;;;;;23.52;51.25;101811.31;5140574;27;20038;-35
2022/08/11 04:40:27;;;;;;;0.10;0.10;;;;;;;23.55;51.38;101807.13;5130063;27;20085;-34
2022/08/11 04:43:21;;;;;;;0.10;0.10;;;;;;;23.54;51.32;101811.03;5128899;27;20177;-34
2022/08/11 04:46:26;;;;;;;0.10;0.10;;;;;;;23.54;51.29;101808.25;5146537;27;20084;-34
2022/08/11 05:07:52;;;;;;;0.10;0.10;;;;;;;23.54;51.30;101811.03;5133822;27;20133;-34
2022/08/11 05:10:33;;;;;;;0.10;0.10;;;;;;;23.54;51.24;101822.16;5123232;27;20129;-34
2022/08/11 05:36:09;;;;;;;0.10;0.10;;;;;;;23.54;50.32;101833.28;5117724;27;20078;-37
2022/08/11 05:58:38;;;;;;;0.10;0.10;;;;;;;23.57;50.40;101842.97;5115969;27;20078;-36
2022/08/11 06:01:09;;;;;;;0.10;0.10;;;;;;;23.58;50.32;101844.66;5100325;27;20051;-37
2022/08/11 06:04:12;;;;;;;0.10;0.10;;;;;;;23.58;50.31;101842.69;5076336;27;20123;-36
2022/08/11 06:06:25;;;;;;;0.10;0.10;;;;;;;23.58;50.48;101845.47;5102659;27;20670;-36
2022/08/11 06:08:54;;;;;;;0.10;0.10;;;;;;;23.57;50.64;101834.63;5123323;27;20127;-36
2022/08/11 06:11:19;;;;;;;0.10;0.10;;;;;;;23.57;50.78;101831.84;5111774;27;20121;-36
2022/08/11 06:14:06;;;;;;;0.10;0.10;;;;;;;23.57;50.09;101838.25;5101182;27;20051;-37
2022/08/11 06:16:32;;;;;;;0.10;0.10;;;;;;;23.58;49.79;101839.91;5106705;27;20169;-36
2022/08/11 06:18:59;;;;;;;0.10;0.10;;;;;;;23.59;49.72;101829.63;5106984;27;20040;-36
2022/08/11 06:21:24;;;;;;;0.10;0.10;;;;;;;23.58;49.50;101837.13;5108275;27;20130;-36
2022/08/11 06:23:51;;;;;;;0.10;0.10;;;;;;;23.58;49.17;101826.03;5113226;28;20070;-36
2022/08/11 06:26:17;;;;;;;0.10;0.10;;;;;;;23.60;49.62;101828.50;5108592;27;20473;-37
2022/08/11 06:28:44;;;;;;;0.10;0.10;;;;;;;23.59;49.15;101826.84;5110837;27;20466;-36
2022/08/11 06:31:14;;;;;;;0.10;0.10;;;;;;;23.61;49.33;101836.53;5088118;28;20185;-37
2022/08/11 06:33:55;;;;;;;0.10;0.10;;;;;;;23.60;48.67;101832.09;5112189;28;20090;-37
2022/08/11 06:36:44;;;;;;;0.10;0.10;;;;;;;23.62;49.28;101831.81;5085037;27;20127;-37
2022/08/11 06:39:32;;;;;;;0.10;0.10;;;;;;;23.54;46.93;101836.88;5096084;28;20130;-41
2022/08/11 06:42:05;;;;;;;0.10;0.10;;;;;;;23.57;47.11;101829.06;5084310;28;20051;-38
2022/08/11 06:44:57;;;;;;;0.10;0.10;;;;;;;23.61;47.64;101835.72;5114459;28;20130;-37
2022/08/11 06:47:23;;;;;;;0.10;0.10;;;;;;;23.62;47.62;101827.09;5093508;28;20126;-37
2022/08/11 06:52:36;;;;;;;0.10;0.10;;;;;;;23.63;49.70;101830.72;5093321;28;20134;-37
2022/08/11 06:55:07;;;;;;;0.10;0.10;;;;;;;23.63;48.77;101828.75;5107904;28;20147;-37
2022/08/11 07:00:39;;;;;;;0.10;0.10;;;;;;;23.64;47.36;101835.97;5088427;28;21844;-38
2022/08/11 07:03:11;;;;;;;0.10;0.10;;;;;;;23.67;46.99;101837.38;5107620;28;20180;-38
2022/08/11 07:05:57;;;;;;;0.10;0.10;;;;;;;23.67;47.23;101829.03;5089217;28;20164;-37
2022/08/11 07:17:19;;;;;;;0.10;0.10;;;;;;;23.68;47.26;101828.75;5118274;27;20137;-35
2022/08/11 07:29:00;;;;;;;0.10;0.10;;;;;;;23.45;43.59;101841.41;5116109;27;20133;-37
2022/08/11 07:31:21;;;;;;;0.10;0.10;;;;;;;23.56;44.80;101836.59;5134318;27;20099;-37
2022/08/11 07:33:48;;;;;;;0.10;0.10;;;;;;;23.62;45.14;101835.44;5155115;27;20125;-37
2022/08/11 07:36:38;;;;;;;0.10;0.10;;;;;;;23.65;45.25;101836.84;5139526;27;20058;-37
2022/08/11 07:39:08;;;;;;;0.10;0.10;;;;;;;23.66;45.00;101830.13;5153076;27;20145;-37
2022/08/11 07:41:34;;;;;;;0.10;0.10;;;;;;;23.66;45.36;101827.34;5136817;27;20070;-38
2022/08/11 07:44:07;;;;;;;0.10;0.10;;;;;;;23.67;45.46;101820.69;5151067;27;20492;-37
2022/08/11 07:52:29;;;;;;;0.10;0.10;;;;;;;23.69;46.02;101833.19;5137179;27;20082;-37
2022/08/11 07:54:58;;;;;;;0.10;0.10;;;;;;;23.70;46.20;101820.94;5141468;27;20057;-37
2022/08/11 08:17:58;;;;;;;0.10;0.10;;;;;;;23.78;47.18;101817.53;5120287;27;20046;-37
2022/08/11 08:20:40;;;;;;;0.10;0.10;;;;;;;23.80;47.35;101813.66;5114893;27;20055;-36
2022/08/11 08:23:06;;;;;;;0.10;0.10;;;;;;;23.79;46.93;101818.34;5116284;27;20166;-41
2022/08/11 08:25:34;;;;;;;0.10;0.10;;;;;;;23.80;47.42;101819.22;5135802;27;20446;-37
2022/08/11 08:28:01;;;;;;;0.10;0.10;;;;;;;23.83;47.24;101824.16;5120636;27;20529;-37
2022/08/11 08:30:58;;;;;;;0.10;0.10;;;;;;;23.81;46.78;101826.44;5118210;27;20130;-37
2022/08/11 08:33:20;;;;;;;0.10;0.10;;;;;;;23.81;47.13;101829.22;5104629;27;20410;-37
2022/08/11 08:35:48;;;;;;;0.10;0.10;;;;;;;23.79;47.82;101823.91;5128097;27;20126;-37
2022/08/11 08:38:24;;;;;;;0.10;0.10;;;;;;;23.81;46.98;101823.66;5110614;27;20055;-37
2022/08/11 08:40:51;;;;;;;0.10;0.10;;;;;;;23.80;47.95;101830.34;5131062;27;20183;-37
2022/08/11 08:43:17;;;;;;;0.10;0.10;;;;;;;23.78;48.69;101830.59;5099770;27;20168;-37
2022/08/11 08:45:43;;;;;;;0.10;0.10;;;;;;;23.79;48.46;101832.25;5140108;27;20458;-37
2022/08/11 08:48:14;;;;;;;0.10;0.10;;;;;;;23.79;47.38;101826.69;5136628;27;20078;-37
2022/08/11 08:53:35;;;;;;;0.10;0.10;;;;;;;23.83;46.74;101826.94;5121953;27;20039;-37
2022/08/11 08:56:01;;;;;;;0.10;0.10;;;;;;;23.83;46.84;101829.72;5101469;27;20089;-37
2022/08/11 08:58:28;;;;;;;0.10;0.10;;;;;;;23.83;46.65;101829.72;5135792;27;20074;-37
2022/08/11 09:00:55;;;;;;;0.10;0.10;;;;;;;23.84;47.14;101831.41;5137639;27;20130;-37
2022/08/11 09:03:21;;;;;;;0.10;0.10;;;;;;;23.82;48.12;101828.09;5116557;27;20043;-37
2022/08/11 09:06:07;;;;;;;0.10;0.10;;;;;;;23.84;47.00;101829.47;5119185;27;20422;-37
2022/08/11 09:08:34;;;;;;;0.00;0.00;;;;;;;23.84;48.31;101823.91;5136288;27;20046;-37
2022/08/11 09:13:48;;;;;;;0.03;0.03;;;;;;;23.90;48.32;101828.28;5118454;27;20149;-38
2022/08/11 09:16:32;;;;;;;0.10;0.10;;;;;;;23.94;47.60;101834.94;5119503;27;20134;-37
2022/08/11 09:18:59;;;;;;;0.10;0.10;;;;;;;23.94;47.89;101828.53;5117101;27;20069;-38
2022/08/11 09:21:24;;;;;;;0.10;0.10;;;;;;;23.87;42.89;101830.81;5114322;27;20291;-39
2022/08/11 09:26:58;;;;;;;0.10;0.10;;;;;;;23.92;45.39;101825.19;5120152;27;20086;-37
2022/08/11 09:29:26;;;;;;;0.10;0.10;;;;;;;23.93;44.94;101819.38;5137547;27;20348;-37
2022/08/11 09:31:52;;;;;;;0.10;0.10;;;;;;;23.92;46.06;101817.72;5115056;27;20366;-37
2022/08/11 09:34:18;;;;;;;0.10;0.10;;;;;;;23.91;45.46;101821.59;5132309;27;20483;-37
2022/08/11 09:42:19;;;;;;;0.10;0.10;;;;;;;23.90;47.81;101813.53;5110974;27;20137;-37
2022/08/11 09:44:49;;;;;;;0.10;0.10;;;;;;;23.91;47.02;101813.25;5116349;27;20405;-36
2022/08/11 09:47:19;;;;;;;0.10;0.10;;;;;;;23.93;46.21;101807.41;5125670;27;20195;-37
2022/08/11 09:49:47;;;;;;;0.10;0.10;;;;;;;23.93;47.79;101812.97;5132353;27;20126;-36
2022/08/11 09:52:14;;;;;;;0.08;0.08;;;;;;;23.92;47.71;101814.94;5127947;27;20156;-37
2022/08/11 09:54:41;;;;;;;0.10;0.10;;;;;;;23.92;46.53;101814.06;5129243;27;20126;-37
2022/08/11 09:59:52;;;;;;;0.00;0.00;;;;;;;23.95;47.80;101813.50;5105081;27;20549;-37
2022/08/11 10:02:42;;;;;;;0.10;0.10;;;;;;;23.97;47.41;101811.28;5130983;27;20046;-38
2022/08/11 10:07:00;;;;;;;0.10;0.10;;;;;;;23.96;47.95;101809.59;5112948;27;20506;-37
2022/08/11 10:07:55;;;;;;;0.10;0.10;;;;;;;23.99;47.07;101804.28;5115629;27;20506;-37
2022/08/11 10:10:21;;;;;;;0.00;0.00;;;;;;;23.98;47.72;101804.56;5112682;27;21495;-37
2022/08/11 10:13:06;;;;;;;0.10;0.10;;;;;;;23.96;47.95;101804.88;5133366;27;20043;-37
2022/08/11 10:15:54;;;;;;;0.10;0.10;;;;;;;23.97;46.85;101797.34;5110016;27;20077;-37
2022/08/11 10:18:41;;;;;;;0.10;0.10;;;;;;;23.99;46.89;101806.22;5107728;27;20465;-37
2022/08/11 10:21:28;;;;;;;0.10;0.10;;;;;;;24.00;46.95;101794.78;5098813;27;20150;-37
2022/08/11 10:26:53;;;;;;;0.10;0.10;;;;;;;23.98;47.67;101794.28;5117479;27;20437;-38
2022/08/11 10:35:26;;;;;;;0.10;0.10;;;;;;;23.98;47.83;101785.09;5110120;27;20069;-37
2022/08/11 10:37:53;;;;;;;0.10;0.10;;;;;;;23.99;47.93;101776.44;5115801;27;20130;-38
2022/08/11 10:40:36;;;;;;;0.10;0.10;;;;;;;24.00;48.11;101769.75;5116790;27;20696;-37
2022/08/11 10:43:04;;;;;;;0.00;0.00;;;;;;;24.00;48.20;101768.94;5109585;27;20130;-37
2022/08/11 10:48:22;;;;;;;0.10;0.10;;;;;;;24.00;47.78;101755.84;5115376;27;20346;-38
2022/08/11 10:51:20;;;;;;;0.00;0.00;;;;;;;24.02;47.62;101755.56;5132731;27;20186;-37
2022/08/11 10:59:09;;;;;;;0.10;0.10;;;;;;;24.00;48.21;101747.50;5120695;27;20232;-37
2022/08/11 11:01:39;;;;;;;0.08;0.08;;;;;;;24.03;46.06;101749.69;5131356;27;20039;-38
2022/08/11 11:04:10;;;;;;;0.00;0.00;;;;;;;24.02;47.35;101750.00;5119106;27;20043;-38
2022/08/11 11:07:02;;;;;;;0.10;0.10;;;;;;;24.01;47.98;101740.00;5125377;27;20138;-37
2022/08/11 11:09:31;;;;;;;0.10;0.10;;;;;;;24.00;48.14;101741.94;5124447;27;20103;-38
2022/08/11 11:18:03;;;;;;;0.03;0.03;;;;;;;24.07;45.74;101738.81;5117485;27;20055;-37
2022/08/11 11:20:49;;;;;;;0.10;0.10;;;;;;;24.05;42.89;101732.72;5113208;27;20582;-41
2022/08/11 11:23:26;;;;;;;0.10;0.10;;;;;;;24.11;40.98;101725.97;5095796;27;20082;-43
2022/08/11 11:26:20;;;;;;;0.10;0.10;;;;;;;24.15;42.30;101726.22;5132798;27;20231;-47
2022/08/11 11:29:24;;;;;;;0.10;0.10;;;;;;;24.26;42.48;101727.75;5118916;27;20051;-39
2022/08/11 11:32:08;;;;;;;0.13;0.13;;;;;;;24.26;43.68;101711.03;5099722;27;20413;-37
2022/08/11 11:35:01;;;;;;;0.10;0.10;;;;;;;24.19;45.11;101719.75;5111635;27;20130;-38
2022/08/11 11:37:31;;;;;;;0.10;0.10;;;;;;;24.18;44.39;101706.97;5107500;27;20157;-39
2022/08/11 11:39:59;;;;;;;0.00;0.00;;;;;;;24.17;44.17;101716.44;5098465;27;20095;-37
2022/08/11 11:42:25;;;;;;;0.10;0.10;;;;;;;24.15;44.89;101710.34;5130148;27;20047;-38
2022/08/11 11:44:51;;;;;;;0.10;0.10;;;;;;;24.14;44.86;101702.31;5111310;27;20125;-40
2022/08/11 11:47:21;;;;;;;0.03;0.03;;;;;;;24.12;44.60;101705.34;5130731;27;20062;-38
2022/08/11 11:49:48;;;;;;;0.10;0.10;;;;;;;24.11;45.93;101700.94;5132122;27;20122;-37
2022/08/11 11:52:17;;;;;;;0.10;0.10;;;;;;;24.11;45.29;101700.09;5115013;27;20055;-38
2022/08/11 11:54:45;;;;;;;0.10;0.10;;;;;;;24.11;46.75;101686.19;5114464;27;20118;-38
2022/08/11 12:02:42;;;;;;;0.10;0.10;;;;;;;24.11;47.26;101683.41;5126105;27;21505;-38
2022/08/11 12:05:09;;;;;;;0.10;0.10;;;;;;;24.11;47.36;101680.63;5137793;27;20047;-38
2022/08/11 12:10:40;;;;;;;0.10;0.10;;;;;;;24.11;46.93;101666.72;5126940;27;20075;-38
2022/08/11 12:15:52;;;;;;;0.10;0.10;;;;;;;24.12;47.08;101674.75;5117093;27;20074;-38
2022/08/11 12:18:39;;;;;;;0.10;0.10;;;;;;;24.11;46.97;101664.75;5117102;27;20050;-37
2022/08/11 12:21:06;;;;;;;0.10;0.10;;;;;;;24.15;45.28;101668.59;5113326;27;20297;-38
2022/08/11 12:29:06;;;;;;;0.10;0.10;;;;;;;24.22;46.36;101654.31;5113374;27;20915;-38
2022/08/11 12:31:33;;;;;;;0.10;0.10;;;;;;;24.24;45.68;101650.13;5135791;27;20081;-38
2022/08/11 12:34:02;;;;;;;0.10;0.10;;;;;;;24.22;45.98;101652.38;5134761;27;20069;-38
2022/08/11 12:36:29;;;;;;;0.10;0.10;;;;;;;24.21;46.80;101641.53;5098155;27;20146;-39
2022/08/11 12:38:55;;;;;;;0.10;0.10;;;;;;;24.18;47.26;101622.63;5118946;27;20123;-38
2022/08/11 12:46:58;;;;;;;0.10;0.10;;;;;;;24.19;46.26;101624.31;5110261;27;20461;-38
2022/08/11 12:52:19;;;;;;;0.00;0.00;;;;;;;24.18;47.06;101617.91;5121324;27;20058;-37
2022/08/11 12:55:08;;;;;;;0.10;0.10;;;;;;;24.17;44.49;101612.63;5119715;27;20137;-37
2022/08/11 13:06:04;;;;;;;0.10;0.10;;;;;;;24.20;46.80;101603.69;5108899;27;20474;-37
2022/08/11 13:08:36;;;;;;;0.10;0.10;;;;;;;24.17;46.26;101607.88;5142445;27;20500;-37
2022/08/11 13:13:51;;;;;;;0.10;0.10;;;;;;;24.16;47.39;101603.47;5124108;27;20069;-37
2022/08/11 13:16:28;;;;;;;0.00;0.00;;;;;;;24.17;44.89;101596.75;5121965;27;20039;-38
2022/08/11 13:18:55;;;;;;;0.10;0.10;;;;;;;24.19;44.86;101593.69;5104452;27;20129;-38
2022/08/11 13:21:22;;;;;;;0.10;0.10;;;;;;;24.22;43.34;101591.16;5118376;27;20075;-37
2022/08/11 13:23:51;;;;;;;0.10;0.10;;;;;;;24.22;43.03;101591.16;5137333;27;20208;-38
2022/08/11 13:26:29;;;;;;;0.10;0.10;;;;;;;24.22;45.26;101599.50;5136581;27;20039;-39
2022/08/11 13:29:21;;;;;;;0.10;0.10;;;;;;;24.22;43.43;101585.59;5095670;27;20492;-38
2022/08/11 13:31:47;;;;;;;0.00;0.00;;;;;;;24.22;42.73;101585.59;5139243;27;20043;-37
2022/08/11 13:34:14;;;;;;;0.10;0.10;;;;;;;24.23;42.09;101592.78;5140167;27;20046;-37
2022/08/11 13:36:41;;;;;;;0.10;0.10;;;;;;;24.22;41.71;101584.72;5140414;27;20074;-37
2022/08/11 13:39:08;;;;;;;0.05;0.05;;;;;;;24.20;41.67;101582.25;5140725;27;20074;-37
2022/08/11 13:41:38;;;;;;;0.10;0.10;;;;;;;24.20;41.35;101573.09;5138772;27;20046;-37
2022/08/11 13:44:06;;;;;;;0.10;0.10;;;;;;;24.20;43.29;101582.25;5140366;27;20130;-37
2022/08/11 13:46:32;;;;;;;;;;;;;;;24.20;45.89;101573.09;5124522;27;20209;-37
2022/08/11 13:49:00;;;;;;;0.10;0.10;;;;;;;24.19;46.42;101574.22;5147028;27;19919;-37
2022/08/11 13:51:29;;;;;;;0.10;0.10;;;;;;;24.20;42.63;101573.09;5116708;27;20083;-37
2022/08/11 13:54:04;;;;;;;0.10;0.10;;;;;;;24.20;42.63;101571.13;5142825;27;20042;-38
2022/08/11 13:56:31;;;;;;;0.10;0.10;;;;;;;24.22;42.54;101562.47;5118228;27;20493;-37
2022/08/11 13:58:58;;;;;;;0.10;0.10;;;;;;;24.19;42.34;101563.09;5142490;27;20039;-37
2022/08/11 14:01:29;;;;;;;0.10;0.10;;;;;;;24.20;42.53;101560.00;5120055;27;20131;-37
2022/08/11 14:04:23;;;;;;;0.10;0.10;;;;;;;24.21;43.27;101563.59;5127575;27;20047;-37
2022/08/11 14:06:59;;;;;;;0.10;0.10;;;;;;;24.20;43.29;101548.84;5142988;27;20035;-37
2022/08/11 14:09:27;;;;;;;0.10;0.10;;;;;;;24.20;43.44;101557.22;5144425;27;20096;-37
2022/08/11 14:14:52;;;;;;;0.10;0.10;;;;;;;24.20;43.00;101551.63;5123834;27;20085;-37
2022/08/11 14:17:18;;;;;;;0.10;0.10;;;;;;;24.20;42.44;101551.63;5117672;27;20074;-37
2022/08/11 14:20:06;;;;;;;0.10;0.10;;;;;;;24.18;44.02;101545.56;5110121;27;20488;-37
2022/08/11 14:22:51;;;;;;;;;;;;;;;24.19;43.95;101547.22;5121464;27;20510;-37
2022/08/11 14:25:17;;;;;;;0.10;0.10;;;;;;;24.20;42.46;101536.91;5138072;27;19935;-37
2022/08/11 14:27:43;;;;;;;0.10;0.10;;;;;;;24.18;42.02;101531.66;5137632;27;20070;-37
2022/08/11 14:31:00;;;;;;;0.10;0.10;;;;;;;24.18;42.22;101528.88;5123648;27;20039;-37
2022/08/11 14:33:15;;;;;;;0.10;0.10;;;;;;;24.17;42.67;101527.19;5118694;27;20266;-37
2022/08/11 14:35:43;;;;;;;0.10;0.10;;;;;;;24.18;42.41;101528.00;5135538;27;20095;-37
2022/08/11 14:38:15;;;;;;;0.10;0.10;;;;;;;24.16;42.40;101530.28;5138077;27;20040;-37
2022/08/11 14:47:05;;;;;;;0.10;0.10;;;;;;;24.16;46.56;101521.94;5109059;27;20046;-37
2022/08/11 14:49:20;;;;;;;0.10;0.10;;;;;;;24.14;46.89;101518.63;5122245;27;21152;-37
2022/08/11 14:51:47;;;;;;;0.00;0.00;;;;;;;24.14;46.99;101521.41;5137762;27;20125;-37
2022/08/11 14:57:02;;;;;;;0.00;0.00;;;;;;;24.12;47.18;101518.91;5128740;27;20509;-37
2022/08/11 14:59:28;;;;;;;0.10;0.10;;;;;;;24.12;47.32;101518.09;5138225;27;20107;-37
2022/08/11 15:04:39;;;;;;;0.10;0.10;;;;;;;24.11;47.42;101497.78;5123807;27;20138;-37
2022/08/11 15:07:05;;;;;;;0.10;0.10;;;;;;;24.12;47.42;101509.75;5140530;27;20129;-37
2022/08/11 15:09:43;;;;;;;0.10;0.10;;;;;;;24.10;47.56;101498.94;5138250;27;20045;-37
2022/08/11 15:12:30;;;;;;;0.10;0.10;;;;;;;24.12;47.50;101496.66;5109321;27;20499;-37
2022/08/11 15:17:44;;;;;;;0.10;0.10;;;;;;;24.10;47.75;101493.34;5124976;27;20092;-37
2022/08/11 15:25:54;;;;;;;0.00;0.00;;;;;;;24.09;47.82;101486.13;5112638;27;20099;-37
2022/08/11 15:45:46;;;;;;;0.13;0.13;;;;;;;24.08;47.96;101473.34;5128191;27;20067;-37
2022/08/11 15:45:50;;;;;;;0.10;0.10;;;;;;;24.09;47.69;101468.59;5127009;27;20561;-37
2022/08/11 15:48:09;;;;;;;0.10;0.10;;;;;;;24.08;47.77;101470.56;5120519;27;20055;-37
2022/08/11 15:50:39;;;;;;;0.10;0.10;;;;;;;24.07;47.80;101468.91;5122719;27;20522;-37
2022/08/11 15:53:11;;;;;;;0.10;0.10;;;;;;;24.07;48.02;101460.56;5141943;27;20133;-37
2022/08/11 15:55:38;;;;;;;0.10;0.10;;;;;;;24.07;48.04;101468.91;5102227;27;20446;-37
2022/08/11 16:04:15;;;;;;;0.10;0.10;;;;;;;24.08;47.97;101467.78;5115338;27;20501;-37
2022/08/11 16:07:02;;;;;;;0.10;0.10;;;;;;;24.06;47.85;101460.88;5129637;27;20085;-37
2022/08/11 16:09:33;;;;;;;0.10;0.10;;;;;;;24.07;48.13;101457.78;5119431;27;20043;-38
2022/08/11 16:12:20;;;;;;;0.00;0.00;;;;;;;24.06;48.14;101450.56;5147362;27;20508;-37
2022/08/11 16:17:37;;;;;;;0.10;0.10;;;;;;;24.06;48.23;101453.34;5120379;27;20078;-37
2022/08/11 16:20:04;;;;;;;0.00;0.00;;;;;;;24.06;47.50;101446.97;5119570;27;20481;-37
2022/08/11 16:22:42;;;;;;;0.10;0.10;;;;;;;24.07;48.03;101456.97;5145211;27;20531;-37
2022/08/11 16:25:24;;;;;;;0.10;0.10;;;;;;;24.06;48.01;101453.34;5129795;27;20392;-38
2022/08/11 16:28:11;;;;;;;0.10;0.10;;;;;;;24.06;47.96;101446.97;5127246;27;20478;-38
2022/08/11 16:30:42;;;;;;;0.10;0.10;;;;;;;24.06;48.20;101449.75;5141559;27;20393;-37
2022/08/11 16:33:08;;;;;;;0.10;0.10;;;;;;;24.06;48.12;101447.78;5143700;27;20077;-38
2022/08/11 16:38:40;;;;;;;0.10;0.10;;;;;;;24.06;48.10;101449.75;5123809;27;20085;-37
2022/08/11 16:41:10;;;;;;;0.10;0.10;;;;;;;24.04;48.03;101453.63;5141208;27;21575;-37
2022/08/11 16:49:17;;;;;;;0.10;0.10;;;;;;;24.03;48.20;101451.16;5126721;27;20043;-37
2022/08/11 16:51:43;;;;;;;0.10;0.10;;;;;;;24.04;48.32;101447.25;5122995;27;20180;-37
2022/08/11 16:54:09;;;;;;;0.10;0.10;;;;;;;24.04;47.93;101444.47;5142190;27;20477;-37
2022/08/11 16:56:40;;;;;;;0.10;0.10;;;;;;;24.03;48.24;101443.63;5135844;27;20143;-37
2022/08/11 16:59:15;;;;;;;0.10;0.10;;;;;;;24.03;48.36;101449.19;5118489;27;20626;-37
2022/08/11 17:01:48;;;;;;;0.10;0.10;;;;;;;24.03;48.18;101435.28;5113067;27;20053;-37